• Join FlightAware (Why Join?)
  • Login
  • US Flag 
12:19PM EST


 

Airport Tracker/Info


-or-


 

Live Flight TrackerFlight Track Log ✈ HAL186 ✈ 07-May-2013 ✈ PHNL - PHOG / OGG

Flight Track Log - Related Links

Times and Time Zones

All times are in EDT time to prevent confusion due to time zone crossing. See the HAL186 flight status page for this flight to view local times or setup timezone preferences in your user account.

Time Position Orientation Groundspeed Altitude Reporting Facility
EDT Latitude Longitude Course Direction KTS MPH feet Rate Location/Type
02:11AM 21.3167 -157.8833 126° Southeast 170 196 1,200  Level Honolulu Center
02:12AM 21.2667 -157.8500 148° Southeast 230 265 3,300 1,920 Climbing Honolulu Center
02:13AM 21.2167 -157.8000 137° Southeast 270 311 5,100 1,860 Climbing Honolulu Center
02:14AM 21.2203 -157.7703 137° Southeast  Level FlightAware Approximate
02:14AM 21.1833 -157.7167 113° Southeast 290 334 7,100  Level Honolulu Center
02:15AM 21.1889 -157.7222 113° Southeast  Level FlightAware Approximate
02:15AM 21.1333 -157.6500 129° Southeast 300 345 9,200  Level Honolulu Center
02:16AM 21.1668 -157.6670 113° Southeast  Level FlightAware Approximate
02:16AM 21.1000 -157.5667 113° Southeast 310 357 10,700  Level Honolulu Center
02:17AM 21.1343 -157.6181 126° Southeast  Level FlightAware Approximate
02:17AM 21.0500 -157.4667 118° Southeast 370 426 11,000  Level Honolulu Center
02:18AM 20.9833 -157.3667 126° Southeast 400 460 11,000  Level Honolulu Center
02:19AM 20.9333 -157.2667 118° Southeast 400 460 11,000  Level Honolulu Center
02:20AM 20.8833 -157.1833 123° Southeast 390 449 11,000  Level Honolulu Center
02:21AM 20.8500 -157.0667 107° East 380 437 11,000  Level Honolulu Center
02:22AM 20.8167 -156.9833 113° Southeast 310 357 11,000  Level Honolulu Center
02:23AM 20.7833 -156.9000 113° Southeast 310 357 11,000 -600 Level Honolulu Center
02:24AM 20.7500 -156.8167 113° Southeast 300 345 9,800 -1,560 Descending Honolulu Center
02:25AM 20.7000 -156.7333 123° Southeast 300 345 7,900 -1,920 Descending Honolulu Center
02:26AM 20.7000 -156.6500 90° East 290 334 6,000 -1,800 Descending Honolulu Center
02:27AM 20.7167 -156.5667 78° East 280 322 4,300 -1,380 Descending Honolulu Center
02:28AM 20.7667 -156.5000 51° Northeast 260 299 3,300 -1,020 Descending Honolulu Center